createdAt,value
2022-12-19T00:04:09.955Z,50.20
2022-12-19T00:09:12.970Z,53.10
2022-12-19T00:14:15.089Z,49.88
2022-12-19T00:19:17.085Z,52.70
2022-12-19T00:24:21.482Z,53.28
2022-12-19T00:29:23.945Z,58.47
2022-12-19T00:34:26.056Z,55.30
2022-12-19T00:39:28.066Z,51.37
2022-12-19T00:44:30.073Z,62.40
2022-12-19T00:49:32.095Z,52.90
2022-12-19T00:54:35.640Z,52.57
2022-12-19T00:59:37.792Z,58.85
2022-12-19T01:04:41.690Z,54.20
2022-12-19T01:09:44.202Z,53.77
2022-12-19T01:14:48.163Z,58.90
2022-12-19T01:19:50.137Z,62.62
2022-12-19T01:24:52.162Z,53.00
2022-12-19T01:29:54.235Z,55.43
2022-12-19T01:34:56.517Z,55.60
2022-12-19T01:39:58.510Z,51.92
2022-12-19T01:45:13.400Z,48.40
2022-12-19T01:50:20.959Z,51.53
2022-12-19T01:55:23.433Z,55.40
2022-12-19T02:00:25.507Z,58.83
2022-12-19T02:05:27.723Z,61.15
2022-12-19T02:10:29.835Z,63.55
2022-12-19T02:15:41.536Z,58.87
2022-12-19T02:20:52.001Z,52.60
2022-12-19T02:26:12.129Z,54.90
2022-12-19T02:31:33.398Z,58.03
2022-12-19T02:36:42.647Z,67.30
2022-12-19T02:41:55.108Z,65.40
2022-12-19T02:47:00.712Z,67.90
2022-12-19T02:52:33.576Z,64.43
2022-12-19T02:58:05.958Z,62.95
2022-12-19T03:03:37.247Z,59.10
2022-12-19T03:09:08.519Z,58.50
2022-12-19T03:14:15.991Z,64.57
2022-12-19T03:19:18.176Z,61.08
2022-12-19T03:24:20.324Z,61.42
2022-12-19T03:29:49.863Z,59.13
2022-12-19T03:35:10.907Z,71.68
2022-12-19T03:40:18.045Z,61.20
2022-12-19T03:45:40.447Z,60.40
2022-12-19T03:50:59.383Z,68.22
2022-12-19T03:56:11.270Z,61.67
2022-12-19T04:01:13.944Z,64.33
2022-12-19T04:06:17.029Z,61.70
2022-12-19T04:11:20.618Z,69.07
2022-12-19T04:16:22.592Z,66.10
2022-12-19T04:21:32.069Z,63.60
2022-12-19T04:26:36.610Z,64.62
2022-12-19T04:31:39.348Z,65.43
2022-12-19T04:36:41.414Z,65.53
2022-12-19T04:41:43.484Z,66.10
2022-12-19T04:46:45.603Z,71.12
2022-12-19T04:51:47.712Z,65.63
2022-12-19T04:56:49.724Z,63.40
2022-12-19T05:01:51.878Z,65.37
2022-12-19T05:06:53.976Z,60.65
2022-12-19T05:11:55.984Z,60.57
2022-12-19T05:17:01.547Z,74.90
2022-12-19T05:22:04.198Z,66.28
2022-12-19T05:27:07.445Z,63.87
2022-12-19T05:32:09.501Z,71.35
2022-12-19T05:37:11.529Z,66.85
2022-12-19T05:42:13.871Z,68.67
2022-12-19T05:47:15.891Z,72.27
2022-12-19T05:52:17.995Z,68.15
2022-12-19T05:57:20.154Z,66.05
2022-12-19T06:02:22.813Z,65.10
2022-12-19T06:07:24.992Z,66.43
2022-12-19T06:12:27.081Z,67.03
2022-12-19T06:17:29.092Z,62.97
2022-12-19T06:22:31.516Z,73.43
2022-12-19T06:27:33.858Z,64.53
2022-12-19T06:32:38.048Z,66.50
2022-12-19T06:37:40.439Z,67.40
2022-12-19T06:42:42.460Z,62.30
2022-12-19T06:47:44.469Z,62.17
2022-12-19T06:52:46.542Z,67.50
2022-12-19T06:57:48.684Z,66.55
2022-12-19T07:02:52.290Z,61.42
2022-12-19T07:07:54.379Z,54.03
2022-12-19T07:12:56.864Z,58.85
2022-12-19T07:18:00.101Z,59.83
2022-12-19T07:23:04.086Z,59.50
2022-12-19T07:28:07.628Z,56.37
2022-12-19T07:33:11.543Z,53.10
2022-12-19T07:38:14.894Z,51.33
2022-12-19T07:43:17.015Z,51.00
2022-12-19T07:48:19.055Z,37.15
2022-12-19T07:53:21.163Z,36.03
2022-12-19T07:58:23.452Z,37.47
2022-12-19T08:03:25.920Z,33.75
2022-12-19T08:08:29.992Z,40.85
2022-12-19T08:13:37.968Z,34.17
2022-12-19T08:18:41.893Z,35.60
2022-12-19T08:23:45.953Z,29.60
2022-12-19T08:28:48.255Z,31.05
2022-12-19T08:33:51.369Z,36.63
2022-12-19T08:38:54.580Z,29.67
2022-12-19T08:43:56.675Z,33.35
2022-12-19T08:48:58.867Z,33.60
2022-12-19T08:54:02.018Z,35.80
2022-12-19T08:59:09.794Z,29.80
2022-12-19T09:06:00.193Z,30.57
2022-12-19T09:09:37.110Z,27.90
2022-12-19T09:14:39.258Z,30.15
2022-12-19T09:19:43.047Z,32.95
2022-12-19T09:24:50.040Z,30.63
2022-12-19T09:29:52.044Z,28.17
2022-12-19T09:34:54.142Z,32.28
2022-12-19T09:39:58.900Z,30.13
2022-12-19T09:45:31.252Z,34.67
2022-12-19T09:51:10.577Z,31.87
2022-12-19T09:56:15.871Z,29.03
2022-12-19T10:01:30.721Z,34.50
2022-12-19T10:07:14.005Z,32.25
2022-12-19T10:12:46.249Z,30.95
2022-12-19T10:18:18.529Z,30.43
2022-12-19T10:23:38.902Z,29.95
2022-12-19T10:28:56.140Z,31.05
2022-12-19T10:34:07.181Z,29.10
2022-12-19T10:39:33.303Z,32.83
2022-12-19T10:44:40.045Z,29.00
2022-12-19T10:49:42.343Z,27.57
2022-12-19T10:54:44.560Z,31.37
2022-12-19T11:00:00.391Z,28.00
2022-12-19T11:05:04.552Z,28.10
2022-12-19T11:15:49.500Z,32.60
2022-12-19T11:21:32.038Z,28.12
2022-12-19T11:29:30.008Z,29.90
2022-12-19T11:30:25.556Z,28.47
2022-12-19T11:33:18.185Z,28.73
2022-12-19T11:38:37.356Z,28.70
2022-12-19T11:44:11.846Z,27.53
2022-12-19T11:49:19.773Z,29.07
2022-12-19T11:54:27.151Z,32.30
2022-12-19T11:59:35.562Z,28.15
2022-12-19T12:05:45.691Z,28.27
2022-12-19T12:18:40.774Z,26.08
2022-12-19T12:26:41.311Z,30.80
2022-12-19T12:31:20.455Z,25.50
2022-12-19T12:31:42.622Z,27.65
2022-12-19T12:35:51.817Z,29.10
2022-12-19T12:39:14.534Z,29.97
2022-12-19T12:44:22.650Z,29.83
2022-12-19T12:49:55.520Z,32.92
2022-12-19T12:54:58.498Z,30.60
2022-12-19T13:00:17.676Z,29.90
2022-12-19T13:05:22.707Z,31.80
2022-12-19T13:10:28.414Z,31.58
2022-12-19T13:15:32.694Z,28.90
2022-12-19T13:20:48.135Z,28.92
2022-12-19T13:25:55.126Z,28.77
2022-12-19T13:31:19.722Z,27.53
2022-12-19T13:39:50.749Z,27.83
2022-12-19T13:42:40.778Z,31.25
2022-12-19T13:47:45.128Z,28.35
2022-12-19T13:52:51.182Z,30.90
2022-12-19T13:57:54.633Z,28.45
2022-12-19T14:02:59.337Z,30.08
2022-12-19T14:08:05.300Z,35.43
2022-12-19T14:13:49.216Z,34.53
2022-12-19T14:18:56.948Z,33.53
2022-12-19T14:24:17.863Z,32.67
2022-12-19T14:30:26.710Z,34.83
2022-12-19T14:36:05.320Z,32.95
2022-12-19T14:40:28.084Z,31.48
2022-12-19T14:54:03.375Z,33.20
2022-12-19T14:54:41.626Z,37.85
2022-12-19T14:57:02.296Z,37.20
2022-12-19T15:02:07.371Z,33.50
2022-12-19T15:07:31.824Z,31.45
2022-12-19T15:14:49.483Z,31.80
2022-12-19T15:18:37.268Z,35.10
2022-12-19T15:23:39.710Z,41.13
2022-12-19T15:28:46.241Z,38.42
2022-12-19T15:34:23.451Z,37.28
2022-12-19T15:39:10.290Z,34.80
2022-12-19T15:44:24.785Z,33.50
2022-12-19T15:49:26.840Z,35.88
2022-12-19T15:59:52.017Z,41.25
2022-12-19T16:04:59.937Z,36.42
2022-12-19T16:10:06.412Z,31.30
2022-12-19T16:15:24.878Z,37.67
2022-12-19T16:20:29.822Z,37.45
2022-12-19T16:25:45.888Z,41.00
2022-12-19T16:30:50.425Z,37.00
2022-12-19T16:36:04.113Z,44.60
2022-12-19T16:41:17.401Z,38.85
2022-12-19T16:46:23.494Z,37.43
2022-12-19T16:51:27.753Z,36.25
2022-12-19T16:56:36.431Z,32.25
2022-12-19T17:01:38.562Z,32.67
2022-12-19T17:06:41.181Z,38.63
2022-12-19T17:11:45.982Z,35.70
2022-12-19T17:16:48.393Z,34.38
2022-12-19T17:21:51.895Z,39.53
2022-12-19T17:26:53.962Z,37.20
2022-12-19T17:31:56.085Z,38.55
2022-12-19T17:37:00.503Z,35.43
2022-12-19T17:42:36.853Z,36.10
2022-12-19T17:47:39.610Z,33.03
2022-12-19T17:52:41.688Z,36.50
2022-12-19T17:57:43.802Z,36.47
2022-12-19T18:02:48.112Z,38.95
2022-12-19T18:07:50.739Z,37.45
2022-12-19T18:12:53.885Z,34.60
2022-12-19T18:17:57.303Z,34.47
2022-12-19T18:23:00.731Z,34.92
2022-12-19T18:28:02.797Z,35.23
2022-12-19T18:33:06.320Z,38.90
2022-12-19T18:38:12.863Z,37.92
2022-12-19T18:43:16.570Z,38.40
2022-12-19T18:48:36.940Z,35.17
2022-12-19T18:53:39.114Z,39.42
2022-12-19T18:58:41.436Z,41.60
2022-12-19T19:03:57.535Z,35.23
2022-12-19T19:09:00.291Z,37.75
2022-12-19T19:14:02.359Z,34.70
2022-12-19T19:19:07.241Z,33.50
2022-12-19T19:24:14.591Z,37.63
2022-12-19T19:29:18.986Z,42.30
2022-12-19T19:34:28.177Z,35.67
2022-12-19T19:39:33.103Z,36.47
2022-12-19T19:44:35.153Z,36.72
2022-12-19T19:49:37.255Z,37.78
2022-12-19T19:54:39.389Z,38.77
2022-12-19T19:59:41.537Z,38.35
2022-12-19T20:04:43.975Z,39.42
2022-12-19T20:09:46.363Z,41.57
2022-12-19T20:14:48.434Z,42.35
2022-12-19T20:19:51.441Z,38.33
2022-12-19T20:24:54.200Z,37.97
2022-12-19T20:29:56.804Z,44.50
2022-12-19T20:34:59.227Z,44.28
2022-12-19T20:40:01.336Z,40.58
2022-12-19T20:45:03.637Z,39.07
2022-12-19T20:50:07.593Z,44.30
2022-12-19T20:55:09.951Z,35.75
2022-12-19T21:00:14.770Z,38.27
2022-12-19T21:05:17.364Z,35.45
2022-12-19T21:10:20.509Z,37.13
2022-12-19T21:15:23.141Z,41.10
2022-12-19T21:20:29.515Z,42.03
2022-12-19T21:25:36.143Z,41.10
2022-12-19T21:30:38.223Z,44.00
2022-12-19T21:35:40.332Z,44.53
2022-12-19T21:40:42.362Z,37.40
2022-12-19T21:45:44.486Z,41.70
2022-12-19T21:50:55.554Z,40.07
2022-12-19T21:56:25.339Z,44.83
2022-12-19T22:01:28.131Z,38.40
2022-12-19T22:06:31.951Z,42.50
2022-12-19T22:11:35.820Z,41.23
2022-12-19T22:16:38.607Z,39.65
2022-12-19T22:21:40.702Z,41.83
2022-12-19T22:26:43.311Z,44.17
2022-12-19T22:31:46.101Z,45.47
2022-12-19T22:36:49.758Z,43.10
2022-12-19T22:41:51.904Z,43.67
2022-12-19T22:46:53.941Z,40.83
2022-12-19T22:51:56.017Z,44.15
2022-12-19T22:56:58.046Z,46.33
2022-12-19T23:02:00.329Z,45.80
2022-12-19T23:07:02.501Z,44.08
2022-12-19T23:12:04.697Z,39.33
2022-12-19T23:17:06.824Z,41.70
2022-12-19T23:22:09.025Z,46.63
2022-12-19T23:27:11.367Z,44.97
2022-12-19T23:32:13.439Z,48.70
2022-12-19T23:37:15.480Z,47.28
2022-12-19T23:42:17.578Z,53.13
2022-12-19T23:47:19.779Z,45.40
2022-12-19T23:52:22.356Z,47.17
2022-12-19T23:57:24.379Z,43.63
